createdAt,value
2022-09-25T00:03:18.443Z,15.59
2022-09-25T00:08:19.924Z,15.60
2022-09-25T00:13:21.711Z,15.62
2022-09-25T00:18:42.317Z,15.64
2022-09-25T00:23:44.991Z,15.63
2022-09-25T00:28:46.598Z,15.57
2022-09-25T00:33:47.863Z,15.52
2022-09-25T00:38:49.398Z,15.48
2022-09-25T00:43:53.001Z,15.47
2022-09-25T00:49:13.070Z,15.54
2022-09-25T00:54:17.393Z,15.55
2022-09-25T00:59:20.917Z,15.55
2022-09-25T01:04:23.038Z,15.55
2022-09-25T01:09:24.434Z,15.57
2022-09-25T01:14:26.880Z,15.57
2022-09-25T01:19:47.223Z,15.57
2022-09-25T01:24:54.580Z,15.58
2022-09-25T01:30:15.628Z,15.60
2022-09-25T01:35:24.016Z,15.62
2022-09-25T01:40:25.319Z,15.61
2022-09-25T01:45:36.435Z,15.65
2022-09-25T01:50:58.090Z,15.67
2022-09-25T01:56:06.964Z,15.71
2022-09-25T02:01:12.080Z,15.69
2022-09-25T02:06:16.871Z,15.72
2022-09-25T02:11:18.205Z,15.74
2022-09-25T02:16:26.179Z,15.81
2022-09-25T02:21:47.346Z,15.82
2022-09-25T02:26:49.669Z,15.84
2022-09-25T02:31:57.063Z,15.89
2022-09-25T02:36:59.417Z,15.91
2022-09-25T02:42:10.823Z,15.93
2022-09-25T02:47:25.117Z,15.91
2022-09-25T02:52:33.782Z,15.93
2022-09-25T02:57:51.330Z,15.94
2022-09-25T03:02:54.879Z,15.96
2022-09-25T03:08:14.928Z,15.95
2022-09-25T03:13:31.221Z,15.96
2022-09-25T03:18:32.591Z,15.93
2022-09-25T03:23:33.866Z,15.90
2022-09-25T03:28:35.230Z,15.88
2022-09-25T03:33:40.868Z,15.88
2022-09-25T03:38:43.080Z,15.92
2022-09-25T03:43:44.355Z,15.94
2022-09-25T03:48:46.560Z,15.94
2022-09-25T03:53:48.678Z,15.96
2022-09-25T03:58:51.100Z,15.95
2022-09-25T04:03:52.677Z,15.96
2022-09-25T04:08:54.274Z,15.96
2022-09-25T04:13:56.848Z,15.95
2022-09-25T04:18:58.141Z,15.97
2022-09-25T04:24:17.906Z,15.98
2022-09-25T04:29:21.188Z,16.00
2022-09-25T04:34:22.559Z,16.01
2022-09-25T04:39:23.831Z,16.01
2022-09-25T04:44:25.099Z,16.02
2022-09-25T04:49:26.365Z,16.01
2022-09-25T04:54:27.716Z,16.00
2022-09-25T04:59:29.209Z,15.97
2022-09-25T05:04:30.633Z,15.96
2022-09-25T05:09:32.353Z,15.95
2022-09-25T05:14:33.686Z,15.95
2022-09-25T05:19:35.915Z,15.93
2022-09-25T05:24:38.480Z,15.93
2022-09-25T05:29:40.076Z,15.92
2022-09-25T05:34:41.586Z,15.90
2022-09-25T05:39:43.015Z,15.83
2022-09-25T05:44:44.350Z,15.77
2022-09-25T05:49:45.665Z,15.73
2022-09-25T05:54:47.046Z,15.75
2022-09-25T05:59:49.655Z,15.79
2022-09-25T06:04:51.068Z,15.86
2022-09-25T06:09:52.358Z,15.92
2022-09-25T06:14:53.622Z,15.97
2022-09-25T06:19:54.927Z,16.03
2022-09-25T06:24:56.366Z,16.13
2022-09-25T06:29:57.675Z,16.22
2022-09-25T06:34:58.965Z,16.34
2022-09-25T06:40:00.451Z,16.42
2022-09-25T06:45:02.002Z,16.43
2022-09-25T06:50:03.838Z,16.44
2022-09-25T06:55:05.364Z,16.46
2022-09-25T07:00:06.944Z,16.49
2022-09-25T07:05:08.694Z,16.48
2022-09-25T07:10:09.956Z,16.44
2022-09-25T07:15:11.868Z,16.42
2022-09-25T07:20:15.319Z,16.37
2022-09-25T07:25:16.670Z,16.34
2022-09-25T07:30:17.951Z,16.34
2022-09-25T07:35:19.217Z,16.38
2022-09-25T07:40:20.577Z,16.45
2022-09-25T07:45:22.138Z,16.51
2022-09-25T07:50:23.526Z,16.58
2022-09-25T07:55:25.246Z,16.68
2022-09-25T08:00:26.678Z,16.78
2022-09-25T08:05:28.229Z,16.89
2022-09-25T08:10:29.540Z,17.01
2022-09-25T08:15:30.896Z,17.11
2022-09-25T08:20:32.239Z,17.19
2022-09-25T08:25:34.066Z,17.22
2022-09-25T08:30:37.534Z,17.17
2022-09-25T08:35:41.014Z,17.13
2022-09-25T08:40:50.402Z,17.19
2022-09-25T08:46:11.744Z,17.32
2022-09-25T08:51:13.465Z,17.45
2022-09-25T08:56:17.598Z,17.55
2022-09-25T09:01:27.080Z,17.67
2022-09-25T09:06:29.497Z,17.80
2022-09-25T09:11:34.985Z,17.92
2022-09-25T09:16:42.381Z,18.03
2022-09-25T09:22:02.656Z,18.14
2022-09-25T09:27:07.118Z,18.26
2022-09-25T09:32:09.547Z,18.39
2022-09-25T09:37:34.430Z,18.53
2022-09-25T09:42:36.388Z,18.65
2022-09-25T09:47:44.005Z,18.69
2022-09-25T09:52:46.910Z,18.78
2022-09-25T09:58:08.616Z,18.91
2022-09-25T10:03:22.326Z,19.00
2022-09-25T10:08:23.787Z,19.06
2022-09-25T10:13:29.080Z,19.15
2022-09-25T10:18:42.347Z,19.25
2022-09-25T10:23:46.781Z,19.32
2022-09-25T10:28:48.068Z,19.37
2022-09-25T10:34:09.704Z,19.46
2022-09-25T10:39:44.266Z,19.53
2022-09-25T10:44:46.333Z,19.58
2022-09-25T10:50:07.641Z,19.72
2022-09-25T10:55:14.518Z,19.82
2022-09-25T11:00:24.084Z,19.90
2022-09-25T11:05:28.809Z,19.99
2022-09-25T11:10:33.899Z,20.13
2022-09-25T11:15:39.090Z,20.21
2022-09-25T11:20:42.199Z,20.20
2022-09-25T11:25:48.206Z,20.11
2022-09-25T11:30:54.541Z,19.96
2022-09-25T11:36:04.866Z,19.82
2022-09-25T11:41:12.919Z,19.72
2022-09-25T11:46:26.760Z,19.65
2022-09-25T11:51:46.937Z,19.76
2022-09-25T11:56:56.793Z,20.02
2022-09-25T12:02:01.918Z,20.32
2022-09-25T12:07:03.201Z,20.48
2022-09-25T12:12:10.460Z,20.44
2022-09-25T12:17:17.837Z,20.39
2022-09-25T12:22:37.904Z,20.41
2022-09-25T12:27:40.259Z,20.37
2022-09-25T12:32:50.910Z,20.39
2022-09-25T12:38:02.713Z,20.49
2022-09-25T12:43:07.889Z,20.59
2022-09-25T12:48:30.363Z,20.65
2022-09-25T12:53:54.883Z,20.68
2022-09-25T12:59:00.866Z,20.65
2022-09-25T13:04:05.206Z,20.71
2022-09-25T13:09:27.081Z,20.84
2022-09-25T13:14:32.290Z,20.87
2022-09-25T13:19:34.594Z,21.20
2022-09-25T13:24:46.497Z,22.08
2022-09-25T13:29:57.734Z,22.47
2022-09-25T13:35:01.977Z,22.91
2022-09-25T13:40:42.628Z,23.10
2022-09-25T13:45:44.159Z,23.47
2022-09-25T13:50:46.746Z,23.42
2022-09-25T13:55:48.028Z,23.12
2022-09-25T14:01:02.916Z,22.79
2022-09-25T14:06:05.053Z,22.66
2022-09-25T14:11:08.846Z,22.73
2022-09-25T14:16:15.203Z,22.57
2022-09-25T14:21:18.509Z,22.41
2022-09-25T14:26:27.265Z,22.32
2022-09-25T14:31:34.840Z,22.28
2022-09-25T14:36:43.636Z,22.11
2022-09-25T14:41:47.840Z,21.92
2022-09-25T14:46:49.821Z,21.65
2022-09-25T14:51:53.176Z,21.40
2022-09-25T14:56:56.029Z,21.21
2022-09-25T15:01:58.554Z,20.99
2022-09-25T15:07:08.752Z,20.84
2022-09-25T15:12:16.548Z,20.78
2022-09-25T15:17:23.713Z,20.72
2022-09-25T15:22:28.615Z,20.61
2022-09-25T15:27:30.212Z,20.55
2022-09-25T15:32:38.208Z,20.51
2022-09-25T15:37:39.714Z,20.35
2022-09-25T15:42:44.426Z,20.28
2022-09-25T15:47:45.824Z,20.20
2022-09-25T15:52:50.030Z,20.12
2022-09-25T15:57:52.821Z,20.10
2022-09-25T16:03:17.416Z,20.06
2022-09-25T16:08:27.455Z,20.05
2022-09-25T16:13:28.760Z,20.01
2022-09-25T16:18:42.304Z,19.98
2022-09-25T16:23:44.267Z,19.95
2022-09-25T16:28:49.584Z,19.89
2022-09-25T16:33:52.433Z,19.83
2022-09-25T16:39:20.948Z,19.72
2022-09-25T16:44:28.333Z,19.62
2022-09-25T16:49:32.841Z,19.48
2022-09-25T16:54:36.899Z,19.34
2022-09-25T16:59:39.302Z,19.16
2022-09-25T17:04:40.593Z,19.04
2022-09-25T17:09:41.989Z,18.90
2022-09-25T17:14:43.290Z,18.77
2022-09-25T17:19:44.670Z,18.66
2022-09-25T17:24:46.476Z,18.55
2022-09-25T17:29:49.333Z,18.42
2022-09-25T17:34:50.621Z,18.29
2022-09-25T17:39:51.896Z,18.16
2022-09-25T17:44:53.184Z,18.05
2022-09-25T17:49:54.485Z,17.94
2022-09-25T17:54:55.778Z,17.85
2022-09-25T17:59:57.393Z,17.75
2022-09-25T18:04:58.671Z,17.65
2022-09-25T18:09:59.963Z,17.55
2022-09-25T18:15:01.310Z,17.49
2022-09-25T18:20:21.232Z,17.42
2022-09-25T18:25:22.500Z,17.36
2022-09-25T18:30:24.747Z,17.27
2022-09-25T18:35:26.309Z,17.19
2022-09-25T18:40:27.682Z,17.14
2022-09-25T18:45:29.505Z,17.07
2022-09-25T18:50:32.258Z,17.03
2022-09-25T18:55:33.549Z,17.02
2022-09-25T19:00:34.939Z,17.00
2022-09-25T19:05:36.225Z,16.97
2022-09-25T19:10:37.514Z,16.92
2022-09-25T19:15:41.428Z,16.84
2022-09-25T19:20:53.066Z,16.75
2022-09-25T19:25:55.390Z,16.65
2022-09-25T19:30:57.922Z,16.58
2022-09-25T19:36:00.157Z,16.51
2022-09-25T19:41:01.900Z,16.45
2022-09-25T19:46:04.351Z,16.40
2022-09-25T19:51:08.621Z,16.37
2022-09-25T19:56:10.307Z,16.28
2022-09-25T20:01:13.051Z,16.24
2022-09-25T20:06:15.940Z,16.21
2022-09-25T20:11:18.452Z,16.16
2022-09-25T20:16:21.468Z,16.17
2022-09-25T20:21:23.795Z,16.19
2022-09-25T20:26:26.082Z,16.22
2022-09-25T20:31:28.176Z,16.22
2022-09-25T20:36:29.516Z,16.16
2022-09-25T20:41:31.083Z,16.15
2022-09-25T20:46:32.951Z,16.18
2022-09-25T20:51:35.120Z,16.19
2022-09-25T20:56:37.957Z,16.18
2022-09-25T21:01:40.879Z,16.14
2022-09-25T21:06:42.356Z,16.10
2022-09-25T21:11:43.746Z,16.05
2022-09-25T21:16:45.561Z,16.02
2022-09-25T21:21:48.308Z,16.02
2022-09-25T21:26:49.989Z,16.05
2022-09-25T21:31:52.198Z,16.07
2022-09-25T21:36:53.636Z,16.10
2022-09-25T21:41:54.957Z,16.13
2022-09-25T21:46:56.271Z,16.13
2022-09-25T21:51:58.182Z,16.14
2022-09-25T21:56:59.480Z,16.13
2022-09-25T22:02:00.854Z,16.13
2022-09-25T22:07:02.359Z,16.14
2022-09-25T22:12:04.202Z,16.17
2022-09-25T22:17:05.511Z,16.18
2022-09-25T22:22:07.016Z,16.17
2022-09-25T22:27:08.292Z,16.12
2022-09-25T22:32:09.565Z,16.11
2022-09-25T22:37:10.898Z,16.07
2022-09-25T22:42:12.182Z,16.05
2022-09-25T22:47:13.507Z,16.05
2022-09-25T22:52:14.846Z,16.06
2022-09-25T22:57:16.165Z,16.05
2022-09-25T23:02:17.554Z,16.06
2022-09-25T23:07:18.830Z,16.06
2022-09-25T23:12:20.206Z,16.02
2022-09-25T23:17:21.482Z,15.99
2022-09-25T23:22:22.767Z,15.97
2022-09-25T23:27:24.030Z,16.01
2022-09-25T23:32:25.318Z,15.98
2022-09-25T23:37:27.759Z,15.97
2022-09-25T23:42:29.731Z,15.99
2022-09-25T23:47:30.998Z,15.98
2022-09-25T23:52:32.292Z,15.95
2022-09-25T23:57:37.443Z,15.98
